Time;durP1;ratioP1;P1;durP2;ratioP2;P2;SDS_P1;SDS_P2;PMS_P1;PMS_P2;Temp;Humidity;BMP_temperature;BMP_pressure;BME280_temperature;BME280_humidity;BME280_pressure;Samples;Min_cycle;Max_cycle;Signal;HPM_P1;HPM_P2
2023/08/17 00:01:46;;;;;;;3.63;1.60;;;17.30;99.90;;;;;;4149510;28;20549;-80
2023/08/17 00:03:46;;;;;;;5.10;2.00;;;17.30;99.90;;;;;;4149297;28;20084;-81
2023/08/17 00:05:47;;;;;;;3.08;1.77;;;17.20;99.90;;;;;;4148794;28;20042;-81
2023/08/17 00:07:48;;;;;;;2.95;1.58;;;17.20;99.90;;;;;;4149283;28;20042;-81
2023/08/17 00:09:49;;;;;;;7.70;2.60;;;17.10;99.90;;;;;;4152170;28;20134;-81
2023/08/17 00:11:49;;;;;;;5.80;1.90;;;17.20;99.90;;;;;;4164926;28;20045;-81
2023/08/17 00:13:51;;;;;;;8.07;1.73;;;17.20;99.90;;;;;;4165161;28;20552;-81
2023/08/17 00:15:51;;;;;;;4.25;1.77;;;17.10;99.90;;;;;;4165260;28;20038;-81
2023/08/17 00:17:52;;;;;;;5.60;2.10;;;17.10;99.90;;;;;;4165250;28;20601;-81
2023/08/17 00:19:53;;;;;;;5.28;1.90;;;17.10;99.90;;;;;;4163501;28;20107;-81
2023/08/17 00:21:54;;;;;;;2.55;1.90;;;17.10;99.90;;;;;;4165163;28;20125;-81
2023/08/17 00:23:56;;;;;;;5.32;2.28;;;17.10;99.90;;;;;;4165157;28;20041;-81
2023/08/17 00:25:57;;;;;;;4.85;1.70;;;17.10;99.90;;;;;;4164772;28;20088;-81
2023/08/17 00:27:57;;;;;;;4.95;2.00;;;17.00;99.90;;;;;;4164065;28;20045;-81
2023/08/17 00:29:58;;;;;;;3.28;1.83;;;17.00;99.90;;;;;;4162816;28;20041;-81
2023/08/17 00:32:01;;;;;;;4.97;1.45;;;17.00;99.90;;;;;;4148433;28;20552;-81
2023/08/17 00:34:01;;;;;;;5.10;1.95;;;16.90;99.90;;;;;;4147678;28;20050;-81
2023/08/17 00:36:03;;;;;;;5.03;2.00;;;17.00;99.90;;;;;;4148224;28;20091;-81
2023/08/17 00:38:03;;;;;;;6.28;1.92;;;17.00;99.90;;;;;;4148838;28;20049;-81
2023/08/17 00:40:07;;;;;;;4.03;1.60;;;17.00;99.90;;;;;;4148560;28;20100;-81
2023/08/17 00:42:08;;;;;;;8.98;1.65;;;17.00;99.90;;;;;;4148820;28;20475;-81
2023/08/17 00:44:09;;;;;;;3.60;1.52;;;16.90;99.90;;;;;;4148857;28;20042;-81
2023/08/17 00:46:11;;;;;;;6.28;1.95;;;16.90;99.90;;;;;;4149462;28;20033;-81
2023/08/17 00:48:12;;;;;;;5.75;1.88;;;16.90;99.90;;;;;;4164544;28;20402;-81
2023/08/17 00:50:14;;;;;;;4.38;1.80;;;16.90;99.90;;;;;;4164788;28;20081;-81
2023/08/17 00:52:15;;;;;;;4.25;2.15;;;16.90;99.90;;;;;;4164986;28;20378;-81
2023/08/17 00:54:23;;;;;;;3.78;1.70;;;16.80;99.90;;;;;;4164732;28;20076;-81
2023/08/17 00:56:24;;;;;;;3.00;1.48;;;16.80;99.90;;;;;;4164534;28;20054;-81
2023/08/17 00:58:26;;;;;;;3.25;1.65;;;16.70;99.90;;;;;;4163751;28;20500;-81
2023/08/17 01:00:27;;;;;;;4.70;2.45;;;16.70;99.90;;;;;;4160711;28;20045;-81
2023/08/17 01:02:28;;;;;;;4.72;1.98;;;16.60;99.90;;;;;;4164301;28;20052;-81
2023/08/17 01:04:29;;;;;;;5.22;1.90;;;16.60;99.90;;;;;;4164705;28;20081;-81
2023/08/17 01:06:30;;;;;;;3.88;1.90;;;16.60;99.90;;;;;;4164944;28;20117;-81
2023/08/17 01:08:30;;;;;;;3.75;2.28;;;16.50;99.90;;;;;;4163179;28;20048;-81
2023/08/17 01:10:44;;;;;;;6.32;2.03;;;16.40;99.90;;;;;;4164696;28;20107;-81
2023/08/17 01:12:53;;;;;;;3.85;1.65;;;16.40;99.90;;;;;;4164605;28;20046;-81
2023/08/17 01:14:57;;;;;;;4.28;1.90;;;16.40;99.90;;;;;;4164575;28;20052;-81
2023/08/17 01:17:08;;;;;;;6.10;1.73;;;16.30;99.90;;;;;;4161950;28;20041;-82
2023/08/17 01:19:11;;;;;;;7.45;2.05;;;16.30;99.90;;;;;;4151706;28;20522;-81
2023/08/17 01:21:16;;;;;;;4.78;1.83;;;16.30;99.90;;;;;;4164552;28;20478;-81
2023/08/17 01:23:17;;;;;;;5.18;1.92;;;16.30;99.90;;;;;;4162958;28;20042;-81
2023/08/17 01:25:18;;;;;;;6.03;1.90;;;16.20;99.90;;;;;;4164641;28;20087;-81
2023/08/17 01:27:18;;;;;;;5.38;1.60;;;16.20;99.90;;;;;;4164548;28;20124;-81
2023/08/17 01:29:19;;;;;;;2.45;1.70;;;16.20;99.90;;;;;;4162697;28;20041;-81
2023/08/17 01:31:31;;;;;;;4.90;2.08;;;16.20;99.90;;;;;;4164129;28;20059;-81
2023/08/17 01:33:40;;;;;;;5.45;2.35;;;16.20;99.90;;;;;;4164497;28;20137;-81
2023/08/17 01:35:50;;;;;;;;;;;16.20;99.90;;;;;;4162382;28;20129;-82
2023/08/17 01:38:03;;;;;;;3.40;2.15;;;16.20;99.90;;;;;;4148055;28;19967;-81
2023/08/17 01:40:05;;;;;;;7.68;2.22;;;16.10;99.90;;;;;;4146501;28;20517;-82
2023/08/17 01:42:07;;;;;;;7.28;2.10;;;16.10;99.90;;;;;;4148031;28;20042;-81
2023/08/17 01:44:08;;;;;;;4.00;2.17;;;16.10;99.90;;;;;;4148065;28;20580;-82
2023/08/17 01:46:09;;;;;;;7.43;1.60;;;16.10;99.90;;;;;;4146940;28;20049;-81
2023/08/17 01:48:09;;;;;;;7.72;1.80;;;16.10;99.90;;;;;;4147668;28;20046;-81
2023/08/17 01:50:10;;;;;;;6.03;1.60;;;16.10;99.90;;;;;;4148028;28;20053;-81
2023/08/17 01:52:11;;;;;;;5.18;1.60;;;16.10;99.90;;;;;;4148022;28;20049;-81
2023/08/17 01:54:11;;;;;;;3.05;1.70;;;16.10;99.90;;;;;;4147094;28;20173;-81
2023/08/17 01:56:12;;;;;;;4.40;1.67;;;16.10;99.90;;;;;;4159982;28;20084;-81
2023/08/17 01:58:13;;;;;;;2.03;1.55;;;16.10;99.90;;;;;;4164339;28;20542;-81
2023/08/17 02:00:14;;;;;;;5.00;1.92;;;16.10;99.90;;;;;;4164309;28;20077;-81
2023/08/17 02:02:16;;;;;;;3.95;1.60;;;16.10;99.90;;;;;;4164207;28;20042;-81
2023/08/17 02:04:17;;;;;;;2.22;1.80;;;16.10;99.90;;;;;;4164274;28;20449;-81
2023/08/17 02:06:18;;;;;;;3.25;1.73;;;16.10;99.90;;;;;;4163800;28;20042;-81
2023/08/17 02:08:18;;;;;;;3.70;2.00;;;16.00;99.90;;;;;;4163992;28;20052;-81
2023/08/17 02:10:19;;;;;;;5.55;2.35;;;16.00;99.90;;;;;;4162806;28;20049;-81
2023/08/17 02:12:20;;;;;;;5.63;1.40;;;16.00;99.90;;;;;;4159787;28;20144;-81
2023/08/17 02:14:20;;;;;;;4.78;2.17;;;16.00;99.90;;;;;;4159887;28;20093;-82
2023/08/17 02:16:21;;;;;;;3.65;1.38;;;15.90;99.90;;;;;;4163996;28;20033;-81
2023/08/17 02:18:22;;;;;;;2.95;1.63;;;15.90;99.90;;;;;;4164152;28;20049;-81
2023/08/17 02:20:23;;;;;;;7.25;1.38;;;15.90;99.90;;;;;;4164114;28;20045;-81
2023/08/17 02:22:23;;;;;;;8.55;1.52;;;15.90;99.90;;;;;;4163824;28;20049;-81
2023/08/17 02:24:25;;;;;;;4.30;1.63;;;15.90;99.90;;;;;;4164130;28;20125;-82
2023/08/17 02:26:25;;;;;;;4.43;1.73;;;15.80;99.90;;;;;;4163713;28;20045;-81
2023/08/17 02:28:26;;;;;;;2.67;1.90;;;15.80;99.90;;;;;;4164134;28;20112;-81
2023/08/17 02:30:27;;;;;;;7.93;2.33;;;15.80;99.90;;;;;;4162163;28;20041;-82
2023/08/17 02:32:27;;;;;;;6.18;1.77;;;15.80;99.90;;;;;;4159947;28;20041;-81
2023/08/17 02:34:28;;;;;;;2.30;1.40;;;15.80;99.90;;;;;;4163601;28;20041;-81
2023/08/17 02:36:29;;;;;;;3.65;2.10;;;15.80;99.90;;;;;;4162522;28;20501;-81
2023/08/17 02:38:30;;;;;;;2.95;1.60;;;15.80;99.90;;;;;;4164226;28;20041;-81
2023/08/17 02:40:32;;;;;;;4.78;1.95;;;15.80;99.90;;;;;;4163771;28;20046;-81
2023/08/17 02:42:32;;;;;;;5.40;1.60;;;15.80;99.90;;;;;;4165920;28;20084;-81
2023/08/17 02:44:34;;;;;;;3.33;1.60;;;15.80;99.90;;;;;;4166800;28;20045;-81
2023/08/17 02:46:35;;;;;;;4.53;1.63;;;15.80;99.90;;;;;;4164800;28;20397;-81
2023/08/17 02:48:36;;;;;;;4.38;1.55;;;15.80;99.90;;;;;;4153540;28;20045;-81
2023/08/17 02:50:36;;;;;;;5.38;1.30;;;15.80;99.90;;;;;;4151152;28;20081;-81
2023/08/17 02:52:37;;;;;;;5.15;1.30;;;15.80;99.90;;;;;;4149740;28;20057;-81
2023/08/17 02:54:38;;;;;;;4.35;1.38;;;15.80;99.90;;;;;;4149984;28;20486;-82
2023/08/17 02:56:39;;;;;;;3.97;1.40;;;15.70;99.90;;;;;;4150356;28;20045;-82
2023/08/17 02:58:42;;;;;;;2.83;1.20;;;15.70;99.90;;;;;;4150490;28;20037;-82
2023/08/17 03:00:43;;;;;;;4.25;1.80;;;15.70;99.90;;;;;;4156827;28;20041;-80
2023/08/17 03:02:44;;;;;;;2.95;1.40;;;15.70;99.90;;;;;;4153038;28;20121;-82
2023/08/17 03:04:45;;;;;;;4.32;1.42;;;15.70;99.90;;;;;;4152698;28;20452;-82
2023/08/17 03:06:45;;;;;;;4.13;1.27;;;15.70;99.90;;;;;;4153450;28;20049;-82
2023/08/17 03:08:46;;;;;;;5.95;1.50;;;15.70;99.90;;;;;;4160918;28;20045;-82
2023/08/17 03:10:47;;;;;;;3.83;1.40;;;15.70;99.90;;;;;;4166632;28;20048;-81
2023/08/17 03:12:48;;;;;;;5.72;1.52;;;15.70;99.90;;;;;;4166224;28;20486;-81
2023/08/17 03:14:50;;;;;;;4.22;1.92;;;15.70;99.90;;;;;;4166612;28;20049;-82
2023/08/17 03:16:50;;;;;;;3.03;1.20;;;15.70;99.90;;;;;;4164956;28;20438;-82
2023/08/17 03:18:51;;;;;;;3.35;1.17;;;15.70;99.90;;;;;;4166520;28;20046;-82
2023/08/17 03:20:52;;;;;;;4.00;1.20;;;15.70;99.90;;;;;;4166458;28;20045;-82
2023/08/17 03:22:52;;;;;;;2.78;1.33;;;15.70;99.90;;;;;;4162673;28;20363;-82
2023/08/17 03:24:55;;;;;;;3.83;1.70;;;15.70;99.90;;;;;;4154558;28;20445;-82
2023/08/17 03:26:56;;;;;;;2.47;1.45;;;15.70;99.90;;;;;;4149641;28;20038;-82
2023/08/17 03:28:57;;;;;;;4.35;1.60;;;15.60;99.90;;;;;;4148697;28;20041;-82
2023/08/17 03:30:57;;;;;;;2.10;1.30;;;15.60;99.90;;;;;;4146990;28;20137;-82
2023/08/17 03:32:58;;;;;;;2.50;1.50;;;15.60;99.90;;;;;;4149703;28;20131;-82
2023/08/17 03:34:59;;;;;;;2.88;1.40;;;15.60;99.90;;;;;;4163962;28;20382;-82
2023/08/17 03:37:00;;;;;;;4.28;1.30;;;15.60;99.90;;;;;;4165532;28;20081;-81
2023/08/17 03:39:00;;;;;;;2.65;1.30;;;15.60;99.90;;;;;;4164160;28;20468;-82
2023/08/17 03:41:01;;;;;;;5.07;1.42;;;15.60;99.90;;;;;;4166446;28;20045;-81
2023/08/17 03:43:02;;;;;;;2.35;1.00;;;15.60;99.90;;;;;;4165113;28;20041;-81
2023/08/17 03:45:04;;;;;;;3.70;1.25;;;15.60;99.90;;;;;;4165754;28;20591;-81
2023/08/17 03:47:05;;;;;;;4.65;1.40;;;15.60;99.90;;;;;;4166109;28;20041;-82
2023/08/17 03:49:05;;;;;;;4.00;1.85;;;15.60;99.90;;;;;;4165940;28;20053;-82
2023/08/17 03:51:06;;;;;;;2.83;1.38;;;15.60;99.90;;;;;;4165718;28;20464;-81
2023/08/17 03:53:07;;;;;;;5.35;1.13;;;15.50;99.90;;;;;;4163606;28;20073;-81
2023/08/17 03:55:08;;;;;;;4.90;1.40;;;15.60;99.90;;;;;;4165568;28;20046;-82
2023/08/17 03:57:09;;;;;;;4.50;1.40;;;15.60;99.90;;;;;;4157794;28;20045;-82
2023/08/17 03:59:09;;;;;;;4.60;1.77;;;15.50;99.90;;;;;;4159833;28;20045;-81
2023/08/17 04:01:11;;;;;;;3.67;1.17;;;15.50;99.90;;;;;;4165791;28;20457;-82
2023/08/17 04:03:12;;;;;;;3.25;1.20;;;15.50;99.90;;;;;;4165844;28;20046;-81
2023/08/17 04:05:13;;;;;;;4.38;1.55;;;15.40;99.90;;;;;;4165442;28;20062;-82
2023/08/17 04:07:22;;;;;;;4.10;1.30;;;15.40;99.90;;;;;;4165630;28;20037;-82
2023/08/17 04:09:23;;;;;;;2.22;1.30;;;15.40;99.90;;;;;;4165862;28;20045;-81
2023/08/17 04:11:23;;;;;;;4.82;1.40;;;15.40;99.90;;;;;;4165680;28;20056;-81
2023/08/17 04:13:24;;;;;;;6.30;1.88;;;15.30;99.90;;;;;;4165488;28;20064;-82
2023/08/17 04:15:25;;;;;;;4.15;1.60;;;15.30;99.90;;;;;;4165212;28;20508;-82
2023/08/17 04:17:26;;;;;;;3.03;1.48;;;15.30;99.90;;;;;;4154295;28;20490;-81
2023/08/17 04:19:27;;;;;;;3.10;1.52;;;15.30;99.90;;;;;;4149011;28;20049;-82
2023/08/17 04:21:28;;;;;;;3.80;1.50;;;15.30;99.90;;;;;;4163861;28;20113;-82
2023/08/17 04:23:28;;;;;;;5.60;1.30;;;15.30;99.90;;;;;;4163834;28;20052;-81
2023/08/17 04:25:29;;;;;;;3.83;1.80;;;15.30;99.90;;;;;;4148810;28;20117;-81
2023/08/17 04:27:30;;;;;;;5.32;2.20;;;15.30;99.90;;;;;;4163699;28;20038;-82
2023/08/17 04:29:31;;;;;;;4.93;2.00;;;15.30;99.90;;;;;;4148961;28;20536;-82
2023/08/17 04:31:32;;;;;;;5.70;1.60;;;15.30;99.90;;;;;;4148552;28;20076;-82
2023/08/17 04:33:33;;;;;;;5.15;1.48;;;15.30;99.90;;;;;;4149612;28;20064;-82
2023/08/17 04:35:34;;;;;;;3.67;1.70;;;15.20;99.90;;;;;;4163530;28;20041;-82
2023/08/17 04:37:34;;;;;;;2.45;1.60;;;15.20;99.90;;;;;;4163982;28;20132;-82
2023/08/17 04:39:35;;;;;;;3.70;1.48;;;15.20;99.90;;;;;;4165143;28;20037;-81
2023/08/17 04:41:36;;;;;;;3.65;1.27;;;15.20;99.90;;;;;;4163616;28;20053;-82
2023/08/17 04:43:37;;;;;;;5.28;1.40;;;15.20;99.90;;;;;;4163966;28;20077;-82
2023/08/17 04:45:38;;;;;;;4.22;1.88;;;15.20;99.90;;;;;;4163670;28;20100;-82
2023/08/17 04:47:39;;;;;;;7.97;1.40;;;15.20;99.90;;;;;;4165027;28;20398;-82
2023/08/17 04:49:40;;;;;;;4.63;1.17;;;15.20;99.90;;;;;;4164585;28;20493;-82
2023/08/17 04:51:41;;;;;;;2.40;1.40;;;15.20;99.90;;;;;;4180226;28;20053;-81
2023/08/17 04:53:41;;;;;;;4.03;1.30;;;15.20;99.90;;;;;;4158560;28;20081;-82
2023/08/17 04:55:42;;;;;;;5.68;1.20;;;15.20;99.90;;;;;;4164508;28;20149;-82
2023/08/17 04:57:43;;;;;;;2.13;1.40;;;15.20;99.90;;;;;;4164293;28;20041;-82
2023/08/17 04:59:44;;;;;;;4.90;1.48;;;15.20;99.90;;;;;;4164829;28;20503;-82
2023/08/17 05:01:44;;;;;;;2.88;1.20;;;15.10;99.90;;;;;;4162441;28;20056;-82
2023/08/17 05:03:46;;;;;;;3.00;1.67;;;15.10;99.90;;;;;;4164886;28;20394;-82
2023/08/17 05:05:47;;;;;;;2.97;1.40;;;15.10;99.90;;;;;;4164035;28;20081;-81
2023/08/17 05:07:47;;;;;;;3.28;1.20;;;15.10;99.90;;;;;;4164781;28;20052;-82
2023/08/17 05:09:48;;;;;;;3.25;1.30;;;15.10;99.90;;;;;;4164712;28;20056;-82
2023/08/17 05:11:49;;;;;;;4.63;1.30;;;15.10;99.90;;;;;;4164445;28;20041;-82
2023/08/17 05:13:50;;;;;;;3.65;1.40;;;15.10;99.90;;;;;;4164640;28;20442;-82
2023/08/17 05:15:50;;;;;;;3.17;1.35;;;15.10;99.90;;;;;;4164597;28;20041;-82
2023/08/17 05:17:51;;;;;;;5.65;1.55;;;15.20;99.90;;;;;;4162157;28;20037;-82
2023/08/17 05:19:52;;;;;;;4.03;1.70;;;15.10;99.90;;;;;;4148655;28;20081;-82
2023/08/17 05:21:53;;;;;;;4.72;1.70;;;15.20;99.90;;;;;;4148186;28;20188;-82
2023/08/17 05:23:54;;;;;;;6.88;1.40;;;15.20;99.90;;;;;;4148294;28;20049;-81
2023/08/17 05:25:55;;;;;;;3.58;1.40;;;15.20;99.90;;;;;;4147927;28;20084;-82
2023/08/17 05:27:55;;;;;;;3.05;1.40;;;15.20;99.90;;;;;;4147901;28;20046;-82
2023/08/17 05:29:56;;;;;;;5.53;1.70;;;15.30;99.90;;;;;;4130795;28;20045;-82
2023/08/17 05:31:57;;;;;;;3.25;1.50;;;15.30;99.90;;;;;;4148084;28;20057;-82
2023/08/17 05:33:58;;;;;;;4.05;1.27;;;15.40;99.90;;;;;;4148303;28;20045;-82
2023/08/17 05:35:59;;;;;;;2.83;1.10;;;15.40;99.90;;;;;;4150271;28;20097;-82
2023/08/17 05:38:01;;;;;;;9.25;2.03;;;15.50;99.90;;;;;;4148229;28;20104;-82
2023/08/17 05:40:04;;;;;;;5.43;1.40;;;15.60;99.90;;;;;;4148030;28;20064;-81
2023/08/17 05:42:05;;;;;;;5.32;1.50;;;15.70;99.90;;;;;;4147126;28;20058;-81
2023/08/17 05:44:09;;;;;;;3.55;1.30;;;15.70;99.90;;;;;;4147829;28;20045;-81
2023/08/17 05:46:10;;;;;;;4.22;1.15;;;15.80;99.90;;;;;;4147837;28;20046;-81
2023/08/17 05:48:11;;;;;;;8.48;1.83;;;15.80;99.90;;;;;;4147801;28;20525;-82
2023/08/17 05:50:11;;;;;;;6.75;2.25;;;15.90;99.90;;;;;;4147765;28;20398;-82
2023/08/17 05:52:13;;;;;;;6.95;1.50;;;16.00;99.90;;;;;;4149655;28;20501;-82
2023/08/17 05:54:13;;;;;;;2.78;1.10;;;16.10;99.90;;;;;;4163042;28;20053;-82
2023/08/17 05:56:14;;;;;;;5.78;1.38;;;16.20;99.90;;;;;;4163881;28;20445;-82
2023/08/17 05:58:15;;;;;;;3.25;1.20;;;16.30;99.90;;;;;;4164108;28;20503;-83
2023/08/17 06:00:16;;;;;;;3.88;1.05;;;16.40;99.90;;;;;;4162801;28;20501;-82
2023/08/17 06:02:17;;;;;;;3.00;1.15;;;16.40;99.90;;;;;;4163526;28;20046;-82
2023/08/17 06:04:18;;;;;;;3.42;1.20;;;16.50;99.90;;;;;;4164158;28;20512;-83
2023/08/17 06:06:19;;;;;;;9.02;1.20;;;16.60;99.90;;;;;;4164048;28;20042;-82
2023/08/17 06:08:20;;;;;;;3.58;1.33;;;16.70;99.90;;;;;;4163206;28;20033;-82
2023/08/17 06:10:24;;;;;;;4.85;1.40;;;16.80;99.90;;;;;;4163867;28;20128;-82
2023/08/17 06:12:25;;;;;;;5.75;1.30;;;17.20;99.90;;;;;;4150792;28;20072;-83
2023/08/17 06:14:26;;;;;;;6.07;1.27;;;17.00;99.90;;;;;;4147616;28;20057;-82
2023/08/17 06:16:27;;;;;;;2.72;1.20;;;17.00;99.90;;;;;;4147707;28;20390;-82
2023/08/17 06:18:27;;;;;;;5.68;1.55;;;17.10;99.90;;;;;;4151042;28;20038;-82
2023/08/17 06:20:28;;;;;;;2.70;1.30;;;17.20;99.90;;;;;;4149889;28;20046;-82
2023/08/17 06:22:29;;;;;;;2.08;0.93;;;17.20;99.90;;;;;;4151032;28;20042;-83
2023/08/17 06:24:29;;;;;;;4.15;1.13;;;17.30;99.90;;;;;;4150485;28;20108;-81
2023/08/17 06:26:31;;;;;;;6.25;1.20;;;17.40;99.90;;;;;;4149636;28;20038;-82
2023/08/17 06:28:31;;;;;;;2.92;1.52;;;17.50;99.90;;;;;;4151491;28;20505;-83
2023/08/17 06:30:32;;;;;;;2.20;0.80;;;17.50;99.90;;;;;;4167002;28;20053;-83
2023/08/17 06:32:33;;;;;;;4.20;1.05;;;17.60;99.90;;;;;;4166852;28;20048;-83
2023/08/17 06:34:34;;;;;;;4.72;0.82;;;17.70;99.90;;;;;;4167179;28;20393;-83
2023/08/17 06:36:38;;;;;;;2.70;1.08;;;17.70;99.90;;;;;;4165071;28;20054;-82
2023/08/17 06:38:39;;;;;;;3.15;1.45;;;17.80;99.90;;;;;;4167227;28;20045;-83
2023/08/17 06:40:40;;;;;;;7.30;1.10;;;17.80;99.90;;;;;;4167151;28;20056;-83
2023/08/17 06:42:41;;;;;;;5.40;1.10;;;17.90;99.90;;;;;;4166798;28;20486;-83
2023/08/17 06:44:41;;;;;;;2.95;0.90;;;17.90;99.90;;;;;;4165827;28;20510;-80
2023/08/17 06:46:42;;;;;;;2.90;0.70;;;18.00;99.90;;;;;;4163945;28;20041;-83
2023/08/17 06:48:43;;;;;;;7.50;1.05;;;18.10;99.90;;;;;;4156153;28;20045;-82
2023/08/17 06:50:44;;;;;;;3.20;1.30;;;18.20;99.90;;;;;;4166890;28;20041;-82
2023/08/17 06:52:45;;;;;;;2.22;0.85;;;18.20;99.90;;;;;;4166354;28;20041;-82
2023/08/17 06:54:46;;;;;;;7.75;1.00;;;18.30;99.90;;;;;;4165284;28;20053;-82
2023/08/17 06:56:46;;;;;;;11.70;1.63;;;18.30;99.90;;;;;;4165136;28;20045;-82
2023/08/17 06:58:47;;;;;;;3.50;1.00;;;18.20;99.90;;;;;;4166363;28;20041;-82
2023/08/17 07:00:48;;;;;;;3.92;0.80;;;18.30;99.90;;;;;;4163118;28;20183;-81
2023/08/17 07:02:50;;;;;;;4.10;0.98;;;18.20;99.90;;;;;;4150697;28;20208;-81
2023/08/17 07:04:51;;;;;;;6.55;1.00;;;18.20;99.90;;;;;;4149868;28;20061;-81
2023/08/17 07:06:51;;;;;;;2.72;1.13;;;18.20;99.90;;;;;;4150631;28;20046;-81
2023/08/17 07:08:52;;;;;;;3.25;0.80;;;18.00;99.90;;;;;;4150685;28;20059;-80
2023/08/17 07:10:53;;;;;;;3.78;1.00;;;18.10;99.90;;;;;;4165052;28;20593;-81
2023/08/17 07:12:54;;;;;;;6.40;1.95;;;17.60;99.90;;;;;;4160400;28;20049;-81
2023/08/17 07:14:54;;;;;;;5.05;0.85;;;18.10;99.90;;;;;;4150085;28;20048;-81
2023/08/17 07:16:55;;;;;;;4.45;0.77;;;18.10;99.90;;;;;;4149519;28;20038;-82
2023/08/17 07:18:56;;;;;;;3.10;0.80;;;18.10;99.90;;;;;;4153328;28;20135;-81
2023/08/17 07:20:56;;;;;;;5.45;0.73;;;18.10;99.90;;;;;;4148737;28;20132;-81
2023/08/17 07:22:57;;;;;;;4.20;1.10;;;18.10;99.90;;;;;;4150003;28;20367;-81
2023/08/17 07:24:58;;;;;;;4.95;1.95;;;18.10;99.90;;;;;;4149925;28;20049;-81
2023/08/17 07:26:59;;;;;;;3.50;1.15;;;18.20;99.90;;;;;;4131900;28;20112;-81
2023/08/17 07:28:59;;;;;;;6.88;1.15;;;18.20;99.90;;;;;;4148183;28;20053;-80
2023/08/17 07:31:00;;;;;;;5.03;1.60;;;18.30;99.90;;;;;;4149557;28;20052;-80
2023/08/17 07:33:01;;;;;;;1.50;0.60;;;18.40;99.90;;;;;;4149750;28;20482;-80
2023/08/17 07:35:02;;;;;;;2.70;0.73;;;18.40;99.90;;;;;;4149766;28;20038;-80
2023/08/17 07:37:04;;;;;;;4.63;1.02;;;18.40;99.90;;;;;;4152607;28;20038;-80
2023/08/17 07:39:05;;;;;;;4.20;1.08;;;18.50;99.90;;;;;;4148356;28;20156;-80
2023/08/17 07:41:06;;;;;;;3.40;0.73;;;18.60;99.90;;;;;;4149622;28;20046;-80
2023/08/17 07:43:07;;;;;;;5.43;0.80;;;18.60;99.90;;;;;;4148429;28;20096;-82
2023/08/17 07:45:08;;;;;;;2.65;0.88;;;18.70;99.90;;;;;;4171391;28;20049;-81
2023/08/17 07:47:09;;;;;;;4.00;0.73;;;18.70;99.90;;;;;;4151035;28;20402;-82
2023/08/17 07:49:09;;;;;;;4.40;1.13;;;18.70;99.90;;;;;;4163687;28;20056;-81
2023/08/17 07:51:10;;;;;;;3.38;0.55;;;18.80;99.90;;;;;;4150815;28;20092;-82
2023/08/17 07:53:12;;;;;;;3.47;0.77;;;18.80;99.90;;;;;;4163454;28;20120;-82
2023/08/17 07:55:13;;;;;;;2.13;0.60;;;18.90;99.90;;;;;;4151418;28;20050;-82
2023/08/17 07:57:13;;;;;;;3.92;0.60;;;18.90;99.90;;;;;;4163492;28;20615;-82
2023/08/17 07:59:14;;;;;;;6.15;0.80;;;19.00;99.90;;;;;;4150972;28;20050;-82
2023/08/17 08:01:15;;;;;;;1.58;0.60;;;19.10;99.90;;;;;;4162944;28;20180;-83
2023/08/17 08:03:16;;;;;;;2.65;0.80;;;19.20;99.90;;;;;;4152028;28;20056;-82
2023/08/17 08:05:17;;;;;;;3.45;1.00;;;19.20;99.90;;;;;;4162547;28;20116;-81
2023/08/17 08:07:18;;;;;;;6.30;0.70;;;19.20;99.90;;;;;;4152308;28;20072;-81
2023/08/17 08:09:19;;;;;;;3.05;0.80;;;19.30;99.90;;;;;;4161183;28;20049;-81
2023/08/17 08:11:22;;;;;;;6.28;0.88;;;19.40;99.90;;;;;;4151981;28;20042;-81
2023/08/17 08:13:22;;;;;;;2.40;0.70;;;19.60;99.90;;;;;;4161670;28;20390;-81
2023/08/17 08:15:23;;;;;;;3.15;0.70;;;19.80;99.90;;;;;;4159656;28;20052;-81
2023/08/17 08:17:25;;;;;;;11.45;1.75;;;19.90;99.90;;;;;;4151620;28;20507;-81
2023/08/17 08:19:26;;;;;;;4.10;0.60;;;20.00;99.90;;;;;;4164164;28;20045;-81
2023/08/17 08:21:28;;;;;;;2.10;0.50;;;19.90;99.90;;;;;;4163979;28;20486;-81
2023/08/17 08:23:29;;;;;;;2.50;0.50;;;19.90;99.90;;;;;;4165322;28;20041;-81
2023/08/17 08:25:30;;;;;;;1.85;0.47;;;19.90;99.90;;;;;;4160482;28;20449;-80
2023/08/17 08:27:30;;;;;;;1.20;0.80;;;19.90;99.90;;;;;;4152397;28;20084;-81
2023/08/17 08:29:31;;;;;;;3.28;0.63;;;19.70;99.90;;;;;;4160165;28;20046;-81
2023/08/17 08:31:32;;;;;;;3.00;0.77;;;19.30;99.90;;;;;;4153333;28;20045;-80
2023/08/17 08:33:32;;;;;;;7.80;1.02;;;19.50;99.90;;;;;;4159546;28;20038;-81
2023/08/17 08:35:33;;;;;;;3.78;0.75;;;19.40;99.90;;;;;;4154113;28;20129;-81
2023/08/17 08:37:34;;;;;;;1.88;0.60;;;19.40;99.90;;;;;;4159552;28;20042;-81
2023/08/17 08:39:51;;;;;;;3.08;0.55;;;19.40;99.90;;;;;;4155508;28;20479;-81
2023/08/17 08:41:51;;;;;;;2.22;0.80;;;19.30;99.90;;;;;;4157146;28;20453;-81
2023/08/17 08:43:53;;;;;;;2.65;0.90;;;19.30;99.90;;;;;;4156140;28;20103;-81
2023/08/17 08:45:55;;;;;;;2.80;0.63;;;20.00;99.90;;;;;;4155843;28;20505;-81
2023/08/17 08:47:57;;;;;;;1.35;0.55;;;19.30;99.90;;;;;;4159779;28;20072;-82
2023/08/17 08:50:03;;;;;;;4.38;1.00;;;19.30;99.90;;;;;;4150973;28;20053;-81
2023/08/17 08:52:12;;;;;;;3.40;1.05;;;19.40;99.90;;;;;;4151126;28;20041;-81
2023/08/17 08:54:18;;;;;;;4.38;0.88;;;19.30;99.90;;;;;;4151349;28;20120;-81
2023/08/17 08:56:21;;;;;;;2.75;0.60;;;19.40;99.90;;;;;;4159297;28;20394;-81
2023/08/17 08:58:22;;;;;;;3.42;0.80;;;19.40;99.90;;;;;;4161581;28;20057;-81
2023/08/17 09:00:25;;;;;;;1.45;0.60;;;19.40;99.90;;;;;;4152658;28;20048;-81
2023/08/17 09:02:25;;;;;;;1.70;0.57;;;19.40;99.90;;;;;;4152180;28;20113;-81
2023/08/17 09:04:28;;;;;;;2.40;0.50;;;19.40;99.90;;;;;;4160693;28;20056;-81
2023/08/17 09:06:30;;;;;;;3.45;1.23;;;19.40;99.90;;;;;;4151691;28;20050;-81
2023/08/17 09:08:32;;;;;;;1.65;0.80;;;19.60;99.90;;;;;;4160782;28;20430;-81
2023/08/17 09:10:33;;;;;;;1.65;0.68;;;19.70;99.90;;;;;;4162622;28;20053;-81
2023/08/17 09:12:33;;;;;;;3.15;0.65;;;19.90;99.90;;;;;;4150809;28;20470;-81
2023/08/17 09:14:34;;;;;;;2.38;0.50;;;20.10;99.90;;;;;;4161444;28;20049;-82
2023/08/17 09:16:35;;;;;;;4.75;0.82;;;20.30;99.90;;;;;;4150310;28;20096;-82
2023/08/17 09:18:36;;;;;;;6.50;1.38;;;20.60;99.90;;;;;;4160318;28;20492;-82
2023/08/17 09:20:45;;;;;;;2.05;0.70;;;20.80;99.90;;;;;;4150452;28;20399;-82
2023/08/17 09:22:45;;;;;;;6.03;1.27;;;21.00;99.90;;;;;;4163086;28;20045;-81
2023/08/17 09:24:47;;;;;;;1.45;0.52;;;21.20;99.90;;;;;;4131453;28;20049;-82
2023/08/17 09:26:49;;;;;;;3.13;0.70;;;21.70;99.90;;;;;;4162709;28;20104;-81
2023/08/17 09:28:51;;;;;;;4.18;0.60;;;22.00;99.90;;;;;;4148614;28;20041;-81
2023/08/17 09:30:58;;;;;;;5.70;0.70;;;22.20;99.90;;;;;;4163307;28;20049;-81
2023/08/17 09:33:02;;;;;;;4.70;0.70;;;22.30;99.90;;;;;;4163562;28;20517;-81
2023/08/17 09:35:05;;;;;;;2.58;0.57;;;22.50;99.90;;;;;;4148908;28;20041;-81
2023/08/17 09:37:06;;;;;;;3.03;0.70;;;22.90;99.90;;;;;;4160744;28;20128;-81
2023/08/17 09:39:06;;;;;;;4.97;0.57;;;23.10;99.90;;;;;;4152273;28;20045;-81
2023/08/17 09:41:07;;;;;;;3.85;0.60;;;23.40;99.90;;;;;;4162504;28;20409;-81
2023/08/17 09:43:09;;;;;;;8.27;1.00;;;23.50;99.90;;;;;;4150294;28;20042;-81
2023/08/17 09:45:10;;;;;;;2.70;1.15;;;23.50;99.90;;;;;;4151340;28;20132;-81
2023/08/17 09:47:11;;;;;;;5.65;0.80;;;23.40;99.90;;;;;;4147794;28;20431;-80
2023/08/17 09:49:12;;;;;;;4.25;0.70;;;23.40;99.90;;;;;;4146701;28;20061;-81
2023/08/17 09:51:15;;;;;;;1.80;0.60;;;23.60;99.90;;;;;;4147810;28;20046;-81
2023/08/17 09:53:17;;;;;;;2.50;0.65;;;23.70;99.90;;;;;;4160563;28;20508;-81
2023/08/17 09:55:20;;;;;;;3.35;0.60;;;23.80;99.90;;;;;;4182658;28;20124;-81
2023/08/17 09:57:20;;;;;;;4.03;1.20;;;23.80;99.90;;;;;;4167711;28;20077;-81
2023/08/17 09:59:23;;;;;;;1.23;0.63;;;24.00;99.90;;;;;;4165506;28;20468;-81
2023/08/17 10:01:25;;;;;;;2.05;0.68;;;24.20;99.90;;;;;;4167380;28;20042;-81
2023/08/17 10:03:28;;;;;;;3.25;0.55;;;24.50;99.90;;;;;;4167417;28;20056;-81
2023/08/17 10:05:33;;;;;;;2.30;0.50;;;24.70;99.90;;;;;;4166035;28;20472;-81
2023/08/17 10:07:38;;;;;;;5.07;1.70;;;25.00;99.90;;;;;;4167482;28;20482;-81
2023/08/17 10:09:43;;;;;;;3.83;0.90;;;25.40;99.90;;;;;;4167217;28;20046;-81
2023/08/17 10:11:47;;;;;;;1.92;0.50;;;25.50;99.90;;;;;;4167555;28;20053;-81
2023/08/17 10:13:56;;;;;;;2.47;0.57;;;25.70;99.90;;;;;;4164659;28;20152;-81
2023/08/17 10:16:15;;;;;;;4.15;0.98;;;26.00;99.90;;;;;;4163369;28;20148;-81
2023/08/17 10:18:32;;;;;;;3.72;0.70;;;26.30;99.90;;;;;;4167364;28;20041;-81
2023/08/17 10:20:35;;;;;;;5.38;0.73;;;26.30;99.90;;;;;;4167324;28;20132;-81
2023/08/17 10:22:56;;;;;;;2.75;0.57;;;26.20;99.90;;;;;;4165979;28;20061;-81
2023/08/17 10:25:00;;;;;;;1.33;0.50;;;26.10;99.90;;;;;;4150150;28;20076;-81
2023/08/17 10:27:03;;;;;;;3.15;1.55;;;25.80;99.90;;;;;;4164654;28;20625;-81
2023/08/17 10:29:06;;;;;;;1.65;0.55;;;25.40;99.90;;;;;;4152171;28;20081;-81
2023/08/17 10:31:09;;;;;;;5.57;1.70;;;25.00;99.90;;;;;;4169253;28;20060;-81
2023/08/17 10:33:10;;;;;;;0.98;0.50;;;24.60;99.90;;;;;;4164709;28;20046;-81
2023/08/17 10:35:11;;;;;;;2.67;0.50;;;24.30;99.90;;;;;;4167009;28;20040;-81